Aviation Digital Data Service (ADDS)

Output produced by TAFs form (0102 UTC 22 September 2017)
found at http://www.aviationweather.gov/adds/tafs/
 
METAR text: VVNB 220030Z 05004KT 5000 BR NSC 28/26 Q1010 BECMG FM0130 7000 NSW
Conditions at: VVNB (HANOI/NOIBAI INT, VN) observed 0030 UTC 22 September 2017
Temperature: 28.0°C (82°F)
Dewpoint: 26.0°C (79°F) [RH = 89%]
Pressure (altimeter): 29.82 inches Hg (1010.0 mb)
Winds: from the NE (50 degrees) at 5 MPH (4 knots; 2.1 m/s)
Visibility: 3 miles (5 km)
Ceiling: at least 12,000 feet AGL
Clouds: sky clear below 12,000 feet AGL
Weather: BR  (mist)

Forecast for: VVNB (HANOI/NOIBAI INT, VN)
Text: TAF VVNB 212300Z 2200/2224 06005KT 6000 FEW020
Forecast period: 0000 to 2100 UTC 22 September 2017
Forecast type: FROM: standard forecast or significant change
Winds: from the ENE (60 degrees) at 6 MPH (5 knots; 2.6 m/s)
Visibility: 4 miles (6 km)
Clouds: few clouds at 2000 feet AGL
Weather: no significant weather forecast for this period
Text: BECMG 2221/2222 4000 BR
Forecast period: 2100 UTC 22 September 2017 to 0000 UTC 23 September 2017
Forecast type: BECOMING: Conditions expected to become as follows by 2200 UTC 22 September 2017
Winds: from the ENE (60 degrees) at 6 MPH (5 knots; 2.6 m/s)
Visibility: 2.49 miles (4.01 km)
Clouds: few clouds at 2000 feet AGL
Weather: BR  (mist)